Accueil
METAR-TAF:

METAR-TAF

Aéroports :

Aéroport international de Sunan

Pyongyang, Corée du Nord

latitude: 39-02N, longitude: 125-47E, altitude: 36 m

METAR: absent

Heure: 23:01 (14:01 UTC)

Prévision

Le bulletin a été fait il y a 10 heures et 1 minutes, à 04:00 UTC
Prévision valable du 13 à 06 UTC au 14 à 06 UTC
Vent 14 kt de sud
Visibilité: 6000 m
Ciel couvert à une hauteur de 2000 ft
pluie faible

TAF: ZKPY 130400Z 1306/1406 17007MPS 6000 -RA OVC020 TX27/1306Z TN24/1322Z

Observations et prévisions météorologiques de plus de 4000 aéroports (messages METAR et TAF).

Les stations disponibles sont représentées par des disques jaunes et rouges sur la carte.

Passer la souris dessus pour voir le nom de la station.

Cliquer dessus pour voir les observations et prévisions météorologiques.

Pour changer de carte: cliquez sur les boutons verts avec une croix noire pour zoomer, sur le bouton vert avec un tiret pour effectuer un zoom arrière, ou sur les flèches vertes pour les cartes adjacentes.


METAR-TAF: